Time;durP1;ratioP1;P1;durP2;ratioP2;P2;SDS_P1;SDS_P2;PMS_P1;PMS_P2;Temp;Humidity;BMP_temperature;BMP_pressure;BME280_temperature;BME280_humidity;BME280_pressure;Samples;Min_cycle;Max_cycle;Signal;HPM_P1;HPM_P2
2022/08/29 00:00:44;;;;;;;11.80;6.42;;;;;;;20.12;72.38;98937.81;1740294;82;20987;-79
2022/08/29 00:03:11;;;;;;;14.13;6.85;;;;;;;20.10;72.04;98941.03;1740354;82;20979;-79
2022/08/29 00:05:38;;;;;;;14.45;5.55;;;;;;;20.05;73.52;98939.55;1740361;81;21494;-79
2022/08/29 00:08:06;;;;;;;11.35;6.08;;;;;;;20.01;72.21;98942.47;1738007;81;20987;-80
2022/08/29 00:10:35;;;;;;;13.95;5.58;;;;;;;19.95;73.64;98948.16;1735015;82;20982;-79
2022/08/29 00:13:04;;;;;;;11.03;5.40;;;;;;;19.88;74.31;98935.86;1740197;82;20998;-80
2022/08/29 00:15:30;;;;;;;9.43;5.45;;;;;;;19.84;74.03;98943.59;1737425;82;21017;-79
2022/08/29 00:17:57;;;;;;;9.50;5.67;;;;;;;19.79;74.03;98933.81;1735816;81;21074;-80
2022/08/29 00:20:27;;;;;;;12.78;5.30;;;;;;;19.77;73.92;98927.79;1709792;82;21007;-80
2022/08/29 00:22:54;;;;;;;9.45;5.10;;;;;;;19.74;73.78;98934.60;1733258;83;20994;-81
2022/08/29 00:25:21;;;;;;;14.47;4.75;;;;;;;19.73;73.02;98938.17;1738735;82;20931;-81
2022/08/29 00:27:48;;;;;;;9.48;4.65;;;;;;;19.67;72.10;98933.63;1739981;82;21019;-80
2022/08/29 00:30:15;;;;;;;10.40;4.85;;;;;;;19.60;71.86;98933.67;1740272;82;20972;-80
2022/08/29 00:32:42;;;;;;;14.45;5.08;;;;;;;19.53;72.20;98935.48;1740160;82;21526;-79
2022/08/29 00:35:14;;;;;;;10.18;4.90;;;;;;;19.53;73.05;98943.39;1740228;81;20971;-80
2022/08/29 00:37:41;;;;;;;11.20;5.22;;;;;;;19.53;72.89;98938.11;1732471;81;21031;-80
2022/08/29 00:40:14;;;;;;;10.90;5.40;;;;;;;19.50;72.00;98939.62;1739422;81;21103;-80
2022/08/29 00:42:40;;;;;;;8.70;5.60;;;;;;;19.45;71.67;98936.80;1708015;82;21020;-80
2022/08/29 00:45:11;;;;;;;15.83;6.10;;;;;;;19.42;72.12;98935.70;1704623;82;21164;-81
2022/08/29 00:47:43;;;;;;;12.05;6.05;;;;;;;19.41;72.46;98941.91;1702649;83;21073;-80
2022/08/29 00:50:15;;;;;;;17.62;5.62;;;;;;;19.38;71.49;98936.00;1717235;83;21003;-80
2022/08/29 00:52:46;;;;;;;11.93;6.08;;;;;;;19.34;72.82;98939.30;1728263;81;21024;-80
2022/08/29 00:55:18;;;;;;;14.07;6.00;;;;;;;19.30;73.19;98943.08;1730645;82;21468;-79
2022/08/29 00:57:50;;;;;;;15.18;6.03;;;;;;;19.28;73.77;98938.38;1732637;82;21056;-81
2022/08/29 01:00:18;;;;;;;10.38;5.83;;;;;;;19.24;71.63;98937.72;1732222;82;21020;-80
2022/08/29 01:02:46;;;;;;;10.18;5.92;;;;;;;19.19;72.29;98940.27;1714283;82;21048;-79
2022/08/29 01:05:16;;;;;;;9.88;5.15;;;;;;;19.13;72.80;98938.86;1732386;82;20935;-81
2022/08/29 01:07:43;;;;;;;9.20;6.15;;;;;;;19.06;72.92;98933.61;1732561;82;21100;-79
2022/08/29 01:12:14;;;;;;;12.28;5.95;;;;;;;19.03;72.50;98935.95;1732626;82;21358;-80
2022/08/29 01:12:39;;;;;;;14.38;5.47;;;;;;;19.01;73.69;98934.36;1723810;82;21100;-81
2022/08/29 01:15:11;;;;;;;11.40;5.50;;;;;;;19.01;72.31;98934.36;1723244;82;21016;-80
2022/08/29 01:17:42;;;;;;;12.18;5.47;;;;;;;18.97;72.97;98944.71;1732875;82;21024;-80
2022/08/29 01:20:35;;;;;;;11.93;6.03;;;;;;;18.93;71.50;98939.27;1731382;82;21045;-81
2022/08/29 01:23:33;;;;;;;12.80;6.30;;;;;;;18.90;72.67;98938.12;1695566;83;21068;-80
2022/08/29 01:26:01;;;;;;;11.33;5.67;;;;;;;18.89;73.43;98941.23;1718061;83;21078;-80
2022/08/29 01:28:33;;;;;;;10.55;5.47;;;;;;;18.90;73.24;98933.72;1723318;82;21007;-80
2022/08/29 01:31:11;;;;;;;11.90;5.45;;;;;;;18.90;73.00;98935.48;1711340;83;21130;-80
2022/08/29 01:33:52;;;;;;;12.50;6.47;;;;;;;18.87;72.74;98934.73;1736433;82;21016;-80
2022/08/29 01:36:24;;;;;;;12.70;6.40;;;;;;;18.86;73.38;98936.14;1724246;83;21024;-81
2022/08/29 01:38:50;;;;;;;8.35;5.40;;;;;;;18.82;73.80;98932.88;1706336;83;21571;-80
2022/08/29 01:41:20;;;;;;;9.78;5.20;;;;;;;18.82;74.52;98934.19;1709117;82;21028;-80
2022/08/29 01:43:51;;;;;;;18.82;6.12;;;;;;;18.80;74.77;98937.39;1724191;83;21019;-80
2022/08/29 01:46:23;;;;;;;12.00;5.42;;;;;;;18.79;75.19;98934.36;1719973;83;21098;-81
2022/08/29 01:48:50;;;;;;;10.70;5.47;;;;;;;18.77;74.89;98938.84;1703127;83;21027;-80
2022/08/29 01:51:16;;;;;;;13.48;6.00;;;;;;;18.74;73.90;98937.73;1725121;83;21028;-80
2022/08/29 01:53:44;;;;;;;13.53;6.03;;;;;;;18.70;74.15;98938.83;1740741;81;21010;-80
2022/08/29 01:56:19;;;;;;;14.95;6.10;;;;;;;18.60;75.61;98946.47;1761045;81;20991;-80
2022/08/29 01:58:49;;;;;;;10.93;5.67;;;;;;;18.59;74.77;98947.88;1755704;81;21029;-82
2022/08/29 02:01:19;;;;;;;11.73;5.95;;;;;;;18.55;74.65;98952.95;1731165;81;21306;-81
2022/08/29 02:03:46;;;;;;;12.55;6.67;;;;;;;18.49;74.05;98951.05;1722486;82;21050;-80
2022/08/29 02:06:13;;;;;;;13.38;7.25;;;;;;;18.41;74.95;98950.67;1752363;81;21117;-81
2022/08/29 02:08:42;;;;;;;13.50;6.03;;;;;;;18.36;74.81;98951.88;1752486;82;21003;-79
2022/08/29 02:11:11;;;;;;;12.65;6.28;;;;;;;18.31;74.53;98942.94;1752329;82;21017;-80
2022/08/29 02:13:44;;;;;;;15.23;6.47;;;;;;;18.31;73.60;98943.42;1750721;82;21024;-81
2022/08/29 02:16:11;;;;;;;;;;;;;;;18.27;73.78;98945.38;1753790;82;20993;-81
2022/08/29 02:18:41;;;;;;;10.70;6.30;;;;;;;18.24;76.31;98940.28;1750514;81;20138;-81
2022/08/29 02:21:08;;;;;;;10.90;5.17;;;;;;;18.23;74.68;98949.97;1725382;83;21066;-81
2022/08/29 02:23:37;;;;;;;14.75;5.97;;;;;;;18.21;74.09;98945.74;1750987;82;21000;-80
2022/08/29 02:26:05;;;;;;;13.58;5.42;;;;;;;18.23;74.73;98942.55;1751932;81;21037;-81
2022/08/29 02:28:34;;;;;;;15.75;5.97;;;;;;;18.20;75.74;98940.92;1752879;81;21018;-81
2022/08/29 02:31:03;;;;;;;10.15;5.25;;;;;;;18.22;76.14;98937.77;1752883;82;21054;-80
2022/08/29 02:33:30;;;;;;;14.93;5.83;;;;;;;18.27;76.23;98946.70;1745112;81;20992;-80
2022/08/29 02:35:58;;;;;;;10.53;5.40;;;;;;;18.28;76.02;98940.03;1721194;80;21430;-81
2022/08/29 02:38:25;;;;;;;8.85;5.28;;;;;;;18.29;75.99;98944.82;1716154;79;21052;-82
2022/08/29 02:40:52;;;;;;;10.72;4.70;;;;;;;18.29;76.06;98950.92;1726335;79;21026;-82
2022/08/29 02:43:20;;;;;;;15.68;5.30;;;;;;;18.29;75.26;98954.03;1754023;80;20942;-81
2022/08/29 02:45:47;;;;;;;10.10;4.62;;;;;;;18.27;75.31;98950.64;1753376;82;22157;-80
2022/08/29 02:48:14;;;;;;;13.80;4.78;;;;;;;18.28;76.20;98954.51;1752273;81;21022;-80
2022/08/29 02:50:49;;;;;;;11.53;5.00;;;;;;;18.31;76.58;98957.89;1731360;82;21517;-80
2022/08/29 02:53:19;;;;;;;11.05;4.97;;;;;;;18.34;76.31;98966.91;1751650;82;21090;-81
2022/08/29 02:55:47;;;;;;;15.50;7.22;;;;;;;18.38;76.29;98971.92;1750686;82;21012;-80
2022/08/29 02:58:14;;;;;;;11.22;6.75;;;;;;;18.39;76.37;98966.18;1751904;81;21039;-80
2022/08/29 03:00:41;;;;;;;19.40;6.35;;;;;;;18.41;76.58;98976.98;1751523;81;21061;-82
2022/08/29 03:03:09;;;;;;;16.02;6.83;;;;;;;18.42;76.36;98976.06;1731130;82;21011;-80
2022/08/29 03:05:36;;;;;;;15.55;6.37;;;;;;;18.44;76.36;98975.50;1752471;82;21446;-80
2022/08/29 03:08:07;;;;;;;24.85;7.70;;;;;;;18.43;75.40;98983.00;1751838;81;21037;-84
2022/08/29 03:10:35;;;;;;;14.23;7.53;;;;;;;18.41;76.05;98990.14;1751879;82;21018;-82
2022/08/29 03:13:02;;;;;;;18.12;7.17;;;;;;;18.37;76.30;98983.38;1752474;82;20962;-80
2022/08/29 03:15:29;;;;;;;13.55;7.08;;;;;;;18.32;76.04;98994.63;1751733;82;21008;-80
2022/08/29 03:17:57;;;;;;;18.23;7.12;;;;;;;18.24;77.46;98994.23;1745289;81;21044;-80
2022/08/29 03:20:24;;;;;;;16.62;6.75;;;;;;;18.21;77.13;99001.00;1750914;82;20970;-81
2022/08/29 03:22:53;;;;;;;12.23;6.40;;;;;;;18.20;77.33;99000.13;1752513;81;20966;-81
2022/08/29 03:25:21;;;;;;;17.95;7.03;;;;;;;18.20;77.20;99004.55;1751912;81;21022;-82
2022/08/29 03:27:48;;;;;;;13.38;6.80;;;;;;;18.18;77.38;99005.95;1752120;82;21490;-79
2022/08/29 03:30:17;;;;;;;10.80;5.58;;;;;;;18.17;77.04;99009.53;1752459;82;21526;-79
2022/08/29 03:32:44;;;;;;;14.63;6.35;;;;;;;18.11;76.59;99005.94;1748367;81;21075;-79
2022/08/29 03:35:12;;;;;;;11.30;6.30;;;;;;;18.08;78.21;98999.52;1748232;82;21046;-83
2022/08/29 03:37:39;;;;;;;15.03;6.33;;;;;;;18.08;76.84;99006.11;1752444;82;21586;-80
2022/08/29 03:40:08;;;;;;;12.07;5.80;;;;;;;18.03;77.16;99011.64;1752477;82;21001;-80
2022/08/29 03:42:35;;;;;;;15.65;5.30;;;;;;;18.04;77.47;99008.53;1752820;81;20994;-81
2022/08/29 03:45:06;;;;;;;11.43;5.40;;;;;;;18.06;78.16;99024.63;1752373;82;20986;-79
2022/08/29 03:47:33;;;;;;;12.28;5.70;;;;;;;18.07;78.85;99024.99;1752085;81;21494;-81
2022/08/29 03:50:00;;;;;;;12.65;5.85;;;;;;;18.11;78.15;99027.47;1752373;82;21014;-79
2022/08/29 03:52:28;;;;;;;11.03;5.53;;;;;;;18.09;78.22;99032.33;1749991;82;22047;-85
2022/08/29 03:54:55;;;;;;;10.88;6.05;;;;;;;18.13;77.76;99035.64;1752498;82;20967;-79
2022/08/29 03:57:21;;;;;;;9.60;5.60;;;;;;;18.14;77.83;99041.27;1752484;82;21530;-80
2022/08/29 03:59:48;;;;;;;13.90;6.12;;;;;;;18.13;78.33;99042.69;1743414;82;21006;-81
2022/08/29 04:02:17;;;;;;;11.75;6.10;;;;;;;18.04;77.44;99040.94;1741169;82;21439;-79
2022/08/29 04:07:30;;;;;;;18.55;9.50;;;;;;;18.03;78.25;99050.25;1741618;82;20983;-80
2022/08/29 04:09:58;;;;;;;16.97;10.55;;;;;;;18.05;77.55;99051.02;1731462;81;21021;-81
2022/08/29 04:12:24;;;;;;;20.12;11.80;;;;;;;18.03;78.51;99052.41;1752292;82;21046;-80
2022/08/29 04:14:51;;;;;;;17.05;9.35;;;;;;;18.09;78.87;99061.75;1752338;82;21261;-80
2022/08/29 04:17:18;;;;;;;17.65;9.78;;;;;;;18.12;78.16;99064.66;1751864;81;21010;-79
2022/08/29 04:19:45;;;;;;;15.05;9.40;;;;;;;18.15;77.87;99065.81;1752522;82;21502;-79
2022/08/29 04:22:12;;;;;;;19.02;9.40;;;;;;;18.17;77.72;99071.84;1752173;82;20971;-80
2022/08/29 04:24:39;;;;;;;11.22;7.15;;;;;;;18.14;76.97;99070.69;1752251;82;20951;-80
2022/08/29 04:27:06;;;;;;;13.68;6.75;;;;;;;18.11;77.15;99076.13;1752288;81;21009;-80
2022/08/29 04:29:34;;;;;;;16.75;6.22;;;;;;;18.11;77.37;99068.23;1752342;81;21038;-80
2022/08/29 04:32:01;;;;;;;11.48;6.10;;;;;;;18.12;76.98;99066.81;1754523;81;21014;-82
2022/08/29 04:34:27;;;;;;;9.95;5.85;;;;;;;18.13;77.14;99075.58;1755087;81;21005;-83
2022/08/29 04:36:54;;;;;;;15.23;6.67;;;;;;;18.15;75.95;99082.92;1754410;80;21081;-80
2022/08/29 04:39:20;;;;;;;15.25;6.33;;;;;;;18.11;76.65;99080.08;1749574;80;21061;-80
2022/08/29 04:41:47;;;;;;;9.70;5.80;;;;;;;18.08;77.06;99084.58;1752312;80;21091;-81
2022/08/29 04:44:14;;;;;;;12.23;6.25;;;;;;;18.09;76.31;99086.27;1752350;82;21084;-80
2022/08/29 04:46:41;;;;;;;10.20;5.60;;;;;;;18.05;75.60;99087.84;1737475;82;20966;-80
2022/08/29 04:49:08;;;;;;;16.15;6.50;;;;;;;18.08;76.22;99096.42;1747105;82;21085;-79
2022/08/29 04:51:35;;;;;;;12.80;6.47;;;;;;;18.14;76.44;99085.16;1752792;81;20998;-80
2022/08/29 04:54:05;;;;;;;14.35;5.45;;;;;;;18.19;76.72;99085.28;1745036;82;21019;-79
2022/08/29 04:56:32;;;;;;;17.82;6.25;;;;;;;18.26;76.78;99085.77;1739697;81;21032;-80
2022/08/29 04:58:59;;;;;;;10.98;5.83;;;;;;;18.34;76.48;99087.97;1740569;82;21010;-79
2022/08/29 05:01:26;;;;;;;9.95;5.78;;;;;;;18.42;76.44;99099.77;1751248;81;20947;-80
2022/08/29 05:03:53;;;;;;;14.75;5.58;;;;;;;18.49;75.52;99106.36;1752453;81;21054;-80
2022/08/29 05:06:22;;;;;;;10.38;6.35;;;;;;;18.52;75.80;99106.64;1731880;80;21065;-81
2022/08/29 05:08:49;;;;;;;14.25;5.67;;;;;;;18.57;75.86;99105.08;1735575;81;21003;-82
2022/08/29 05:11:18;;;;;;;14.63;5.70;;;;;;;18.65;76.17;99106.80;1721732;82;21502;-80
2022/08/29 05:13:47;;;;;;;11.97;5.37;;;;;;;18.74;76.30;99108.91;1724952;82;21477;-80
2022/08/29 05:16:16;;;;;;;9.35;5.40;;;;;;;18.82;76.14;99104.06;1733667;82;21634;-81
2022/08/29 05:18:45;;;;;;;12.90;6.30;;;;;;;18.94;76.12;99100.30;1739672;82;21064;-82
2022/08/29 05:21:15;;;;;;;8.15;5.30;;;;;;;19.01;76.10;99094.59;1720356;83;21057;-82
2022/08/29 05:23:42;;;;;;;11.85;5.60;;;;;;;19.08;76.02;99094.61;1751521;80;21054;-80
2022/08/29 05:26:08;;;;;;;13.00;5.95;;;;;;;19.18;75.87;99097.98;1736637;80;21065;-82
2022/08/29 05:28:35;;;;;;;10.70;5.75;;;;;;;19.26;75.92;99107.14;1710528;83;21102;-82
2022/08/29 05:31:02;;;;;;;10.70;5.78;;;;;;;19.35;75.90;99106.20;1745994;80;21525;-81
2022/08/29 05:33:29;;;;;;;13.30;6.12;;;;;;;19.44;75.34;99106.97;1754223;80;21028;-80
2022/08/29 05:35:58;;;;;;;17.45;6.55;;;;;;;19.48;75.22;99110.63;1751312;80;21035;-80
2022/08/29 05:38:24;;;;;;;11.73;6.37;;;;;;;19.56;75.04;99109.32;1751420;80;21127;-80
2022/08/29 05:40:51;;;;;;;11.15;6.87;;;;;;;19.60;74.47;99106.88;1747853;80;21475;-81
2022/08/29 05:43:18;;;;;;;15.50;7.50;;;;;;;19.64;74.06;99105.73;1775412;79;21068;-79
2022/08/29 05:45:44;;;;;;;17.12;7.28;;;;;;;19.67;74.27;99102.89;1769918;79;22495;-81
2022/08/29 05:48:13;;;;;;;12.63;6.85;;;;;;;19.71;73.96;99105.74;1729539;81;21010;-83
2022/08/29 05:50:45;;;;;;;20.12;7.60;;;;;;;19.74;73.65;99098.12;1803157;78;20991;-82
2022/08/29 05:53:15;;;;;;;15.98;7.85;;;;;;;19.74;73.57;99095.49;1813444;78;21269;-82
2022/08/29 05:55:43;;;;;;;12.30;7.08;;;;;;;19.75;73.42;99099.80;1812905;78;20975;-80
2022/08/29 05:58:11;;;;;;;16.35;7.80;;;;;;;19.76;73.10;99105.00;1768199;81;22191;-80
2022/08/29 06:00:40;;;;;;;13.25;6.60;;;;;;;19.83;72.88;99097.53;1767438;81;21094;-81
2022/08/29 06:03:09;;;;;;;17.20;7.33;;;;;;;19.88;72.93;99094.14;1769270;81;21023;-80
2022/08/29 06:05:38;;;;;;;14.38;6.85;;;;;;;19.93;73.26;99092.52;1752535;80;21158;-83
2022/08/29 06:08:06;;;;;;;14.63;6.58;;;;;;;20.01;73.08;99096.83;1766048;81;21006;-83
2022/08/29 06:10:37;;;;;;;13.62;6.35;;;;;;;20.06;73.28;99092.95;1765363;81;21035;-84
2022/08/29 06:13:04;;;;;;;15.98;6.95;;;;;;;20.19;73.27;99101.40;1765199;81;21066;-81
2022/08/29 06:15:31;;;;;;;15.68;6.75;;;;;;;20.27;73.21;99105.70;1765233;81;20956;-85
2022/08/29 06:17:57;;;;;;;15.50;7.15;;;;;;;20.37;73.04;99108.15;1747046;81;21042;-86
2022/08/29 06:20:24;;;;;;;14.30;6.58;;;;;;;20.35;72.87;99106.08;1747391;81;21006;-87
2022/08/29 06:22:52;;;;;;;16.48;6.72;;;;;;;20.41;72.92;99108.31;1725184;82;21055;-86
2022/08/29 06:25:19;;;;;;;15.72;6.25;;;;;;;20.44;72.41;99104.14;1741930;81;21024;-86
2022/08/29 06:27:46;;;;;;;19.95;6.37;;;;;;;20.50;72.47;99106.02;1742678;81;21018;-87
2022/08/29 06:30:15;;;;;;;9.60;5.97;;;;;;;20.56;72.19;99107.77;1764442;80;20992;-83
2022/08/29 06:32:42;;;;;;;11.57;6.12;;;;;;;20.56;72.22;99115.69;1749814;81;21030;-83
2022/08/29 06:35:09;;;;;;;12.75;5.08;;;;;;;20.61;72.27;99110.13;1763476;80;21082;-86
2022/08/29 06:37:36;;;;;;;15.23;5.35;;;;;;;20.68;71.56;99107.46;1762330;81;21381;-83
2022/08/29 06:40:04;;;;;;;9.68;5.40;;;;;;;20.62;72.11;99092.86;1764355;79;21520;-81
2022/08/29 06:42:31;;;;;;;16.15;5.47;;;;;;;20.89;71.50;99105.64;1787865;78;21059;-82
2022/08/29 06:44:58;;;;;;;8.08;5.00;;;;;;;21.01;71.37;99097.75;1761169;80;21276;-85
2022/08/29 06:47:25;;;;;;;12.40;5.03;;;;;;;21.13;71.20;99100.03;1767941;80;21042;-83
2022/08/29 06:49:52;;;;;;;12.00;5.12;;;;;;;21.27;70.73;99097.76;1746761;80;21297;-85
2022/08/29 06:52:18;;;;;;;8.73;4.83;;;;;;;21.44;70.04;99096.11;1749423;81;21008;-85
2022/08/29 06:54:45;;;;;;;15.80;5.85;;;;;;;21.62;70.05;99097.10;1757372;80;20940;-86
2022/08/29 06:57:12;;;;;;;12.75;6.33;;;;;;;21.83;69.35;99088.13;1748172;80;21040;-88
2022/08/29 06:59:39;;;;;;;12.13;5.70;;;;;;;22.01;68.66;99088.11;1744355;80;20933;-83
2022/08/29 07:02:06;;;;;;;14.40;6.05;;;;;;;22.22;67.38;99095.44;1752768;80;21031;-85
2022/08/29 07:04:33;;;;;;;14.23;6.65;;;;;;;22.39;66.76;99092.44;1754888;80;21027;-83
2022/08/29 07:07:00;;;;;;;13.40;5.70;;;;;;;22.56;66.27;99087.22;1749747;81;21102;-84
2022/08/29 07:09:26;;;;;;;18.02;5.78;;;;;;;22.73;65.84;99087.75;1756560;81;21026;-81
2022/08/29 07:11:53;;;;;;;12.53;6.17;;;;;;;22.89;65.16;99086.11;1755158;80;21023;-85
2022/08/29 07:14:20;;;;;;;13.18;6.05;;;;;;;23.07;65.38;99079.42;1764335;79;21082;-84
2022/08/29 07:16:46;;;;;;;12.90;5.97;;;;;;;23.22;64.77;99075.59;1748994;80;21003;-85
2022/08/29 07:19:13;;;;;;;9.90;5.83;;;;;;;23.38;63.81;99073.91;1758866;80;21020;-81
2022/08/29 07:21:40;;;;;;;19.50;5.75;;;;;;;23.53;63.45;99071.84;1741989;80;21015;-82
2022/08/29 07:24:08;;;;;;;28.80;7.05;;;;;;;23.67;62.96;99073.89;1755545;80;21067;-84
2022/08/29 07:26:40;;;;;;;12.55;6.30;;;;;;;23.79;62.43;99070.28;1750864;81;20960;-84
2022/08/29 07:29:14;;;;;;;19.02;6.58;;;;;;;23.93;62.57;99070.00;1754062;79;21094;-86
2022/08/29 07:31:41;;;;;;;23.12;6.05;;;;;;;24.05;61.62;99075.30;1760132;81;21104;-85
2022/08/29 07:34:08;;;;;;;11.48;6.20;;;;;;;24.19;61.51;99066.58;1755931;80;21026;-85
2022/08/29 07:36:39;;;;;;;19.32;6.95;;;;;;;24.32;61.76;99068.22;1745018;81;20961;-85
2022/08/29 07:39:10;;;;;;;11.53;6.10;;;;;;;24.48;61.26;99071.78;1750655;80;20971;-85
2022/08/29 07:41:39;;;;;;;17.20;6.08;;;;;;;24.60;61.03;99076.09;1749897;80;20938;-86
2022/08/29 07:44:06;;;;;;;18.15;6.12;;;;;;;24.73;60.85;99068.80;1694898;81;21022;-85
2022/08/29 07:46:33;;;;;;;10.70;5.80;;;;;;;24.85;59.63;99072.23;1737587;81;21107;-84
2022/08/29 07:49:01;;;;;;;10.78;5.72;;;;;;;25.01;60.21;99061.13;1705353;82;21063;-85
2022/08/29 07:51:28;;;;;;;16.70;7.75;;;;;;;25.14;59.69;99064.41;1699924;82;21022;-81
2022/08/29 07:53:57;;;;;;;17.95;6.40;;;;;;;25.31;59.64;99073.63;1711787;82;21070;-85
2022/08/29 07:56:30;;;;;;;18.07;6.53;;;;;;;25.44;59.39;99060.09;1719464;82;20959;-85
2022/08/29 07:58:59;;;;;;;19.75;6.72;;;;;;;25.58;58.91;99063.70;1715289;82;21469;-85
2022/08/29 08:01:26;;;;;;;17.15;6.28;;;;;;;25.79;58.34;99057.48;1715365;82;21045;-84
2022/08/29 08:03:53;;;;;;;10.58;6.05;;;;;;;25.92;58.23;99051.42;1709292;82;21057;-85
2022/08/29 08:06:24;;;;;;;16.73;6.75;;;;;;;26.11;57.65;99049.78;1721153;82;21088;-84
2022/08/29 08:08:51;;;;;;;13.55;7.22;;;;;;;26.27;57.13;99050.57;1690982;83;21829;-84
2022/08/29 08:11:20;;;;;;;12.93;6.53;;;;;;;26.49;55.80;99049.44;1703756;84;21067;-84
2022/08/29 08:13:48;;;;;;;14.45;6.45;;;;;;;26.66;55.55;99047.90;1678835;85;21069;-85
2022/08/29 08:16:19;;;;;;;17.82;6.75;;;;;;;26.78;55.51;99047.62;1686968;83;21034;-84
2022/08/29 08:18:46;;;;;;;15.95;5.90;;;;;;;26.91;54.88;99043.30;1711219;83;21018;-85
2022/08/29 08:21:13;;;;;;;15.40;7.25;;;;;;;27.01;54.83;99045.11;1719886;83;21089;-86
2022/08/29 08:23:41;;;;;;;18.10;6.50;;;;;;;27.12;53.84;99055.61;1733077;82;21866;-85
2022/08/29 08:26:09;;;;;;;15.80;6.53;;;;;;;27.22;53.38;99054.22;1730934;82;21025;-86
2022/08/29 08:28:37;;;;;;;15.80;6.20;;;;;;;27.28;53.34;99051.86;1733269;82;21053;-84
2022/08/29 08:31:07;;;;;;;13.85;7.03;;;;;;;27.40;53.16;99048.98;1736581;82;21043;-86
2022/08/29 08:33:39;;;;;;;15.63;7.03;;;;;;;27.43;53.07;99036.69;1729483;82;20956;-84
2022/08/29 08:36:23;;;;;;;19.20;6.80;;;;;;;27.53;53.14;99044.16;1767796;79;21822;-84
2022/08/29 08:38:52;;;;;;;14.83;7.15;;;;;;;27.58;52.87;99032.05;1771056;79;21030;-84
2022/08/29 08:41:36;;;;;;;19.25;6.65;;;;;;;27.65;52.70;99032.28;1774398;79;21499;-86
2022/08/29 08:44:08;;;;;;;13.85;6.85;;;;;;;27.75;51.92;99037.09;1786135;78;21012;-82
2022/08/29 08:46:46;;;;;;;15.53;6.25;;;;;;;27.87;52.07;99035.05;1790571;78;21053;-85
2022/08/29 08:49:36;;;;;;;12.85;6.55;;;;;;;27.91;51.42;99040.47;1795165;79;21037;-85
2022/08/29 08:52:08;;;;;;;15.72;6.58;;;;;;;27.96;51.12;99042.68;1797994;79;21035;-86
2022/08/29 08:54:40;;;;;;;13.95;6.67;;;;;;;28.06;51.36;99046.12;1786005;79;20972;-85
2022/08/29 08:57:12;;;;;;;14.23;6.58;;;;;;;28.10;50.71;99041.31;1774486;80;21051;-85
2022/08/29 08:59:43;;;;;;;13.83;6.37;;;;;;;28.11;50.96;99036.30;1797459;79;21011;-85
2022/08/29 09:02:26;;;;;;;16.90;6.90;;;;;;;28.26;50.95;99036.12;1766186;79;21014;-84
2022/08/29 09:05:20;;;;;;;21.77;6.60;;;;;;;28.39;50.26;99036.22;1810326;78;21039;-85
2022/08/29 09:08:31;;;;;;;15.45;7.08;;;;;;;28.45;50.08;99019.56;1789112;79;21012;-85
2022/08/29 09:11:03;;;;;;;15.23;6.28;;;;;;;28.48;50.23;99034.80;1803246;78;21039;-86
2022/08/29 09:13:41;;;;;;;19.70;6.33;;;;;;;28.56;49.82;99028.72;1801828;79;21047;-83
2022/08/29 09:16:16;;;;;;;20.30;6.78;;;;;;;28.57;49.03;99023.72;1801677;79;20992;-85
2022/08/29 09:18:46;;;;;;;14.85;6.53;;;;;;;28.66;49.56;99024.61;1755923;80;21016;-84
2022/08/29 09:21:17;;;;;;;11.00;5.78;;;;;;;28.69;48.36;99023.81;1758894;81;21035;-84
2022/08/29 09:23:54;;;;;;;13.08;6.40;;;;;;;28.78;49.00;99026.53;1740828;81;21019;-83
2022/08/29 09:26:23;;;;;;;13.05;6.08;;;;;;;28.84;48.56;99025.91;1795645;79;21042;-83
2022/08/29 09:28:49;;;;;;;10.88;6.05;;;;;;;28.91;48.62;99025.63;1804256;78;20996;-82
2022/08/29 09:31:31;;;;;;;11.60;6.03;;;;;;;28.96;48.50;99028.66;1759770;80;20991;-82
2022/08/29 09:34:06;;;;;;;17.10;6.90;;;;;;;29.02;47.76;99023.17;1738394;81;21021;-83
2022/08/29 09:36:47;;;;;;;10.30;5.85;;;;;;;29.08;47.11;99027.38;1756213;81;20995;-82
2022/08/29 09:39:26;;;;;;;14.35;6.12;;;;;;;29.07;47.38;99027.56;1735586;82;21077;-82
2022/08/29 09:41:59;;;;;;;12.45;5.80;;;;;;;29.11;47.04;99019.08;1726486;81;20968;-81
2022/08/29 09:44:30;;;;;;;16.75;6.53;;;;;;;29.19;47.59;99024.11;1720957;80;20994;-84
2022/08/29 09:47:26;;;;;;;14.10;6.47;;;;;;;29.20;47.49;99028.48;1745687;82;20978;-82
2022/08/29 09:50:23;;;;;;;13.65;6.00;;;;;;;29.23;47.43;99020.16;1738569;82;21006;-84
2022/08/29 09:53:00;;;;;;;15.68;6.03;;;;;;;29.33;46.99;99019.52;1745905;80;21078;-84
2022/08/29 09:55:47;;;;;;;13.28;6.80;;;;;;;29.31;47.11;99017.51;1743846;80;21132;-85
2022/08/29 09:58:20;;;;;;;13.20;5.65;;;;;;;29.38;46.97;99013.67;1751367;80;21014;-85
2022/08/29 10:01:18;;;;;;;11.05;5.80;;;;;;;29.51;46.72;99012.22;1756231;80;20997;-82
2022/08/29 10:03:59;;;;;;;11.20;5.72;;;;;;;29.57;46.50;99008.57;1759529;80;20959;-83
2022/08/29 10:06:33;;;;;;;21.00;5.92;;;;;;;29.74;46.54;99017.00;1753224;80;21011;-80
2022/08/29 10:09:05;;;;;;;11.73;5.70;;;;;;;29.79;45.82;99010.66;1755451;80;21026;-82
2022/08/29 10:11:52;;;;;;;13.78;6.33;;;;;;;29.86;45.88;99010.84;1707350;83;21339;-80
2022/08/29 10:14:37;;;;;;;12.23;6.00;;;;;;;29.87;45.40;99007.17;1691438;84;21145;-81
2022/08/29 10:19:57;;;;;;;13.10;6.12;;;;;;;30.09;45.01;99003.84;1698992;83;21019;-82
2022/08/29 10:22:49;;;;;;;12.20;5.92;;;;;;;30.22;44.71;99000.69;1683760;83;21012;-83
2022/08/29 10:25:39;;;;;;;17.65;6.55;;;;;;;30.37;43.95;99003.55;1694866;83;21027;-83
2022/08/29 10:28:14;;;;;;;16.55;6.62;;;;;;;30.56;44.35;98990.31;1715509;82;20999;-84
2022/08/29 10:31:19;;;;;;;12.75;6.25;;;;;;;30.65;44.12;98985.25;1759105;80;21003;-84
2022/08/29 10:34:03;;;;;;;15.68;6.92;;;;;;;30.75;43.60;98990.95;1724902;80;21005;-84
2022/08/29 10:36:35;;;;;;;15.48;6.25;;;;;;;30.81;43.26;98983.04;1752993;80;21467;-83
2022/08/29 10:39:15;;;;;;;18.05;6.05;;;;;;;30.88;42.55;98980.05;1746241;80;21038;-82
2022/08/29 10:42:01;;;;;;;14.38;6.22;;;;;;;30.89;42.62;98972.31;1758929;80;21077;-83
2022/08/29 10:44:50;;;;;;;11.85;5.97;;;;;;;30.89;42.66;98979.02;1746476;81;20999;-83
2022/08/29 10:47:25;;;;;;;15.25;6.10;;;;;;;30.93;42.25;98987.57;1761511;81;20984;-83
2022/08/29 10:50:07;;;;;;;12.73;6.30;;;;;;;30.98;41.61;98993.75;1735298;80;21014;-82
2022/08/29 10:52:44;;;;;;;10.45;5.67;;;;;;;31.13;42.22;99006.29;1738716;81;21598;-82
2022/08/29 10:55:47;;;;;;;10.32;5.50;;;;;;;31.21;42.09;99008.63;1737453;81;20983;-82
2022/08/29 10:58:17;;;;;;;;;;;;;;;31.29;41.92;99003.22;1748900;81;21087;-82
2022/08/29 11:00:58;;;;;;;16.62;5.70;;;;;;;31.30;41.49;99004.40;1703389;83;20190;-83
2022/08/29 11:04:07;;;;;;;10.70;6.12;;;;;;;31.51;41.75;98999.82;1727594;82;21099;-82
2022/08/29 11:06:39;;;;;;;11.90;6.17;;;;;;;31.67;40.96;98998.86;1744286;81;21078;-84
2022/08/29 11:09:17;;;;;;;13.65;6.70;;;;;;;31.81;40.57;98997.79;1759485;81;21420;-82
2022/08/29 11:11:57;;;;;;;13.98;6.03;;;;;;;31.91;40.55;98999.73;1712915;83;21078;-83
2022/08/29 11:14:29;;;;;;;19.05;6.00;;;;;;;31.84;40.16;99006.86;1794605;78;21050;-81
2022/08/29 11:16:58;;;;;;;15.13;6.28;;;;;;;31.88;41.01;99006.31;1787260;79;21561;-81
2022/08/29 11:19:42;;;;;;;18.17;6.92;;;;;;;31.94;40.33;99006.62;1790201;79;21010;-81
2022/08/29 11:22:25;;;;;;;18.75;6.22;;;;;;;31.80;39.93;99022.49;1792650;78;21543;-81
2022/08/29 11:25:00;;;;;;;15.65;5.87;;;;;;;31.84;40.25;99020.30;1793693;78;21004;-81
2022/08/29 11:27:44;;;;;;;15.40;5.75;;;;;;;31.77;40.37;99022.00;1791051;79;21487;-81
2022/08/29 11:30:24;;;;;;;16.90;5.58;;;;;;;31.75;40.16;99032.92;1793212;79;21461;-82
2022/08/29 11:32:59;;;;;;;12.95;5.50;;;;;;;31.67;39.48;99031.11;1791763;78;21096;-81
2022/08/29 11:36:20;;;;;;;10.05;5.87;;;;;;;31.64;39.85;99019.91;1786644;78;21178;-82
2022/08/29 11:39:16;;;;;;;13.95;5.40;;;;;;;31.50;39.52;99026.34;1675770;84;21664;-82
2022/08/29 11:41:50;;;;;;;8.98;4.83;;;;;;;31.41;40.00;99021.97;1791231;78;21033;-81
2022/08/29 11:44:41;;;;;;;11.53;5.10;;;;;;;31.49;39.81;99027.34;1797900;78;21539;-81
2022/08/29 11:47:40;;;;;;;14.45;5.83;;;;;;;31.58;39.98;99010.69;1789749;78;21028;-81
2022/08/29 11:50:32;;;;;;;10.53;5.08;;;;;;;31.58;39.25;99025.98;1811901;77;20998;-81
2022/08/29 11:53:36;;;;;;;8.70;4.95;;;;;;;31.67;39.08;99020.36;1796560;78;21031;-81